Latest Coastal Weather Observations for Yeppoon

IDQ60701

Issued at 9:45 am EST Saturday 20 September 2014 (issued every 10 minutes, with the page automatically refreshed every 10 minutes)

About coastal observations | Map of coastal stations | Coastal observations for QLD | Marine services | Other Formats
Station Details ID: 033294 Name: YEPPOON THE ESPLANADE Lat: -23.14 Lon: 150.75 Height: 5.5 m
Data from the previous 72 hours. | See also: Recent months at Yeppoon
Date/Time
EST
Temp

°C
Wind Pressure Rain
since 9am
mm
Weather Cloud Vis
km
Sea
Height
m
Swell
Dir
 
Speed
knots
Gust
knots
hPa Trend Height
m
Period
s
Dir
20/09:30am 24.0 E 7 9 1020.2 - 0.0 - - - - - - -
20/09:00am 24.0 E 5 7 1020.2 - 0.0 - - - - - - -
20/08:30am 23.2 ENE 3 5 1020.0 - 0.0 - - - - - - -
20/08:00am 21.9 SW 1 4 1020.1 - 0.0 - - - - - - -
20/07:30am 19.3 W 4 5 1019.6 - 0.0 - - - - - - -
20/07:00am 17.1 W 5 6 1019.2 - 0.0 - - - - - - -
20/06:30am 15.5 W 5 7 1018.8 - 0.0 - - - - - - -
20/06:00am 15.5 W 6 7 1018.5 - 0.0 - - - - - - -
20/05:30am 15.7 W 5 7 1018.2 - 0.0 - - - - - - -
20/05:00am 15.5 WSW 3 5 1017.8 - 0.0 - - - - - - -
20/04:30am 15.5 SSW 4 6 1017.1 - 0.0 - - - - - - -
20/04:00am 16.2 SSW 3 4 1016.7 - 0.0 - - - - - - -
20/03:30am 17.7 W 2 4 1016.8 - 0.0 - - - - - - -
20/03:00am 19.5 N 6 9 1016.9 - 0.0 - - - - - - -
20/02:30am 19.4 N 6 9 1017.0 - 0.0 - - - - - - -
20/02:00am 19.5 N 7 9 1017.2 - 0.0 - - - - - - -
20/01:30am 19.5 N 8 11 1017.5 - 0.0 - - - - - - -
20/01:00am 19.5 N 9 11 1017.6 - 0.0 - - - - - - -
20/12:30am 19.7 N 9 10 1017.9 - 0.0 - - - - - - -
20/12:00am 20.0 N 10 13 1018.2 - 0.0 - - - - - - -
 
Date/Time
EST
Temp

°C
Wind Pressure Rain
since 9am
mm
Weather Cloud Vis
km
Sea
Height
m
Swell
Dir
 
Speed
knots
Gust
knots
hPa Trend Height
m
Period
s
Dir
19/11:30pm 21.0 NNE 15 18 1018.4 - 0.0 - - - - - - -
19/11:00pm 21.6 NNE 17 19 1018.5 - 0.0 - - - - - - -
19/10:30pm 21.7 NNE 16 19 1018.4 - 0.0 - - - - - - -
19/10:00pm 21.7 NNE 15 18 1018.5 - 0.0 - - - - - - -
19/09:30pm 21.8 NNE 16 19 1018.8 - 0.0 - - - - - - -
19/09:00pm 20.8 N 9 12 1019.0 - 0.0 - - - - - - -
19/08:30pm 20.8 N 7 10 1019.1 - 0.0 - - - - - - -
19/08:00pm 20.9 N 7 9 1018.8 - 0.0 - - - - - - -
19/07:30pm 21.2 N 10 13 1018.6 - 0.0 - - - - - - -
19/07:00pm 21.8 NNE 13 15 1018.2 - 0.0 - - - - - - -
19/06:30pm 22.1 NNE 14 16 1017.6 - 0.0 - - - - - - -
19/06:00pm 22.1 NNE 15 17 1017.2 - 0.0 - - - - - - -
19/05:30pm 22.0 NNE 12 16 1017.1 - 0.0 - - - - - - -
19/05:00pm 22.3 NNE 12 15 1016.7 - 0.0 - - - - - - -
19/04:30pm 22.5 NE 12 14 1016.4 - 0.0 - - - - - - -
19/04:00pm 23.0 NNE 12 15 1016.2 - 0.0 - - - - - - -
19/03:30pm 23.3 NE 11 14 1016.2 - 0.0 - - - - - - -
19/03:00pm 23.6 ENE 10 13 1016.3 - 0.0 - - - - - - -
19/02:30pm 23.8 ENE 8 11 1016.8 - 0.0 - - - - - - -
19/02:00pm 23.8 E 9 12 1017.1 - 0.0 - - - - - - -
19/01:30pm 23.8 E 9 12 1017.4 - 0.0 - - - - - - -
19/01:00pm 24.0 E 8 12 1017.8 - 0.0 - - - - - - -
19/12:30pm 24.1 E 8 12 1018.5 - 0.0 - - - - - - -
19/12:00pm 24.0 E 8 10 1019.0 - 0.0 - - - - - - -
19/11:30am 23.7 E 9 11 1019.6 - 0.0 - - - - - - -
19/11:00am 23.9 E 7 11 1020.1 - 0.0 - - - - - - -
19/10:30am 23.2 ESE 8 12 1020.4 - 0.0 - - - - - - -
19/10:00am 23.5 E 9 12 1020.7 - 0.0 - - - - - - -
19/09:30am 22.7 ESE 7 11 1021.0 - 0.0 - - - - - - -
19/09:00am 22.3 ESE 8 11 1021.1 - 0.0 - - - - - - -
19/08:30am 22.0 ESE 6 10 1021.0 - 0.0 - - - - - - -
19/08:00am 20.6 SE 6 9 1020.9 - 0.0 - - - - - - -
19/07:30am 17.8 SSW 3 4 1020.6 - 0.0 - - - - - - -
19/07:00am 15.3 WSW 3 5 1020.1 - 0.0 - - - - - - -
19/06:30am 13.6 W 4 5 1019.9 - 0.0 - - - - - - -
19/06:00am 13.4 W 5 7 1019.6 - 0.0 - - - - - - -
19/05:30am 12.9 W 6 8 1019.4 - 0.0 - - - - - - -
19/05:00am 12.8 W 6 7 1019.2 - 0.0 - - - - - - -
19/04:30am 12.9 W 6 8 1018.8 - 0.0 - - - - - - -
19/04:00am 13.0 W 5 6 1018.4 - 0.0 - - - - - - -
19/03:30am 13.0 W 6 8 1018.2 - 0.0 - - - - - - -
19/03:00am 12.8 W 5 7 1018.3 - 0.0 - - - - - - -
19/02:30am 12.9 W 6 7 1018.5 - 0.0 - - - - - - -
19/02:00am 13.2 W 6 8 1018.7 - 0.0 - - - - - - -
19/01:30am 13.4 W 6 7 1018.8 - 0.0 - - - - - - -
19/01:00am 13.4 W 6 7 1019.0 - 0.0 - - - - - - -
19/12:30am 13.5 W 7 8 1019.1 - 0.0 - - - - - - -
19/12:00am 14.0 W 5 7 1019.3 - 0.0 - - - - - - -
 
Date/Time
EST
Temp

°C
Wind Pressure Rain
since 9am
mm
Weather Cloud Vis
km
Sea
Height
m
Swell
Dir
 
Speed
knots
Gust
knots
hPa Trend Height
m
Period
s
Dir
18/11:30pm 14.2 W 7 8 1019.3 - 0.0 - - - - - - -
18/11:00pm 14.6 W 6 7 1019.3 - 0.0 - - - - - - -
18/10:30pm 14.8 W 5 7 1019.3 - 0.0 - - - - - - -
18/10:00pm 15.6 WSW 4 6 1019.5 - 0.0 - - - - - - -
18/09:30pm 16.2 W 5 6 1019.3 - 0.0 - - - - - - -
18/09:00pm 16.6 W 6 8 1019.2 - 0.0 - - - - - - -
18/08:30pm 17.2 W 5 7 1018.9 - 0.0 - - - - - - -
18/08:00pm 19.0 SW 3 4 1018.6 - 0.0 - - - - - - -
18/07:30pm 21.7 NNE 6 8 1018.1 - 0.0 - - - - - - -
18/07:00pm 21.7 NE 6 8 1017.8 - 0.0 - - - - - - -
18/06:30pm 21.8 NE 7 9 1017.4 - 0.0 - - - - - - -
18/06:00pm 21.8 ENE 8 10 1017.1 - 0.0 - - - - - - -
18/05:30pm 22.2 NE 10 13 1016.8 - 0.0 - - - - - - -
18/05:00pm 22.5 NE 11 13 1016.6 - 0.0 - - - - - - -
18/04:30pm 22.8 NE 10 12 1016.2 - 0.0 - - - - - - -
18/04:00pm 23.2 NE 10 13 1016.0 - 0.0 - - - - - - -
18/03:30pm 23.5 NE 12 14 1016.0 - 0.0 - - - - - - -
18/03:00pm 23.8 NE 12 15 1016.0 - 0.0 - - - - - - -
18/02:30pm 24.1 ENE 12 15 1016.3 - 0.0 - - - - - - -
18/02:00pm 24.4 NE 13 15 1016.6 - 0.0 - - - - - - -
18/01:30pm 24.3 NE 12 15 1017.0 - 0.0 - - - - - - -
18/01:00pm 24.8 NE 11 13 1017.5 - 0.0 - - - - - - -
18/12:30pm 25.1 ENE 7 9 1018.0 - 0.0 - - - - - - -
18/12:00pm 24.1 E 9 12 1018.3 - 0.0 - - - - - - -
18/11:30am 24.2 ENE 9 12 1018.8 - 0.0 - - - - - - -
18/11:00am 24.1 E 9 12 1019.2 - 0.0 - - - - - - -
18/10:30am 23.7 E 10 13 1019.6 - 0.0 - - - - - - -
18/10:00am 24.0 SSE 11 14 1019.8 - 0.0 - - - - - - -
18/09:30am 23.9 SE 9 14 1020.1 - 0.0 - - - - - - -
18/09:00am 23.5 SE 10 14 1019.9 - 0.0 - - - - - - -
18/08:30am 22.8 SSE 13 19 1019.7 - 0.0 - - - - - - -
18/08:00am 21.2 S 6 11 1019.3 - 0.0 - - - - - - -
18/07:30am 19.4 S 7 11 1019.0 - 0.0 - - - - - - -
18/07:00am 17.8 SW 5 7 1018.6 - 0.0 - - - - - - -
18/06:30am 16.5 SW 5 8 1018.1 - 0.0 - - - - - - -
18/06:00am 16.7 SW 6 8 1017.5 - 0.0 - - - - - - -
18/05:30am 16.9 SW 5 6 1017.1 - 0.0 - - - - - - -
18/05:00am 17.4 W 7 9 1016.5 - 0.0 - - - - - - -
18/04:30am 17.2 WSW 4 9 1016.1 - 0.0 - - - - - - -
18/04:00am 16.3 W 4 5 1015.9 - 0.0 - - - - - - -
18/03:30am 16.1 NNW 1 3 1015.7 - 0.0 - - - - - - -
18/03:00am 15.6 W 4 6 1015.7 - 0.0 - - - - - - -
18/02:30am 15.4 SSW 4 8 1015.9 - 0.0 - - - - - - -
18/02:00am 14.9 W 4 4 1015.4 - 0.0 - - - - - - -
18/01:30am 16.6 W 5 7 1015.5 - 0.0 - - - - - - -
18/01:00am 15.7 W 4 5 1015.7 - 0.0 - - - - - - -
18/12:30am 16.1 W 4 5 1015.7 - 0.0 - - - - - - -
18/12:00am 16.9 W 5 6 1016.0 - 0.0 - - - - - - -
 
Date/Time
EST
Temp

°C
Wind Pressure Rain
since 9am
mm
Weather Cloud Vis
km
Sea
Height
m
Swell
Dir
 
Speed
knots
Gust
knots
hPa Trend Height
m
Period
s
Dir
17/11:30pm 17.0 W 7 8 1015.9 - 0.0 - - - - - - -
17/11:00pm 16.4 WNW 4 6 1016.0 - 0.0 - - - - - - -
17/10:30pm 16.8 W 6 7 1015.8 - 0.0 - - - - - - -
17/10:00pm 17.0 W 5 6 1015.9 - 0.0 - - - - - - -
17/09:30pm 18.0 WSW 4 5 1015.6 - 0.0 - - - - - - -
17/09:00pm 19.3 WNW 3 6 1015.7 - 0.0 - - - - - - -
17/08:30pm 21.0 N 10 12 1015.5 - 0.0 - - - - - - -
17/08:00pm 21.2 N 2 6 1015.2 - 0.0 - - - - - - -
17/07:30pm 20.9 N 2 5 1014.7 - 0.0 - - - - - - -
17/07:00pm 21.3 NNW 4 6 1014.4 - 0.0 - - - - - - -
17/06:30pm 22.1 NNW 3 8 1014.1 - 0.0 - - - - - - -
17/06:00pm 22.6 N 11 13 1013.4 - 0.0 - - - - - - -
17/05:30pm 22.6 NNE 17 20 1013.2 - 0.0 - - - - - - -
17/05:00pm 22.5 N 20 22 1013.0 - 0.0 - - - - - - -
17/04:30pm 22.4 NNE 19 21 1012.9 - 0.0 - - - - - - -
17/04:00pm 22.7 NNE 17 20 1013.0 - 0.0 - - - - - - -
17/03:30pm 22.7 NNE 15 18 1013.0 - 0.0 - - - - - - -
17/03:00pm 22.8 NNE 18 20 1013.2 - 0.0 - - - - - - -
17/02:30pm 22.9 NNE 16 18 1013.5 - 0.0 - - - - - - -
17/02:00pm 23.5 NNE 12 15 1013.9 - 0.0 - - - - - - -
17/01:30pm 23.5 NNE 14 16 1014.2 - 0.0 - - - - - - -
17/01:00pm 23.5 NNE 13 15 1014.8 - 0.0 - - - - - - -
17/12:30pm 24.1 NNE 11 13 1015.3 - 0.0 - - - - - - -
17/12:00pm 24.1 NNE 9 11 1015.7 - 0.0 - - - - - - -
17/11:30am 23.6 NNE 9 12 1016.0 - 0.0 - - - - - - -
17/11:00am 24.8 NE 8 10 1016.6 - 0.0 - - - - - - -
17/10:30am 26.1 W 6 9 1017.0 - 0.0 - - - - - - -
17/10:00am 24.4 WNW 6 10 1017.4 - 0.0 - - - - - - -

Other Formats:

Comma delimited format used in spreadsheet applications
http://www.bom.gov.au/fwo/IDQ60701/IDQ60701.94373.axf

JavaScript Object Notation format (JSON) in row-major order
http://www.bom.gov.au/fwo/IDQ60701/IDQ60701.94373.json